Time;durP1;ratioP1;P1;durP2;ratioP2;P2;SDS_P1;SDS_P2;PMS_P1;PMS_P2;Temp;Humidity;BMP_temperature;BMP_pressure;BME280_temperature;BME280_humidity;BME280_pressure;Samples;Min_cycle;Max_cycle;Signal;HPM_P1;HPM_P2
2023/02/14 10:12:10;;;;;;;27.67;25.10;;;9.90;99.90;;;;;;5106445;27;20557;-75
2023/02/14 10:14:39;;;;;;;26.80;24.20;;;10.20;98.70;;;;;;5105829;28;20545;-76
2023/02/14 10:17:13;;;;;;;25.97;23.73;;;10.40;98.20;;;;;;5105985;28;20531;-77
2023/02/14 10:19:43;;;;;;;26.80;24.20;;;10.20;99.10;;;;;;5105606;28;20441;-75
2023/02/14 10:22:14;;;;;;;28.13;25.53;;;10.50;99.10;;;;;;5105608;28;20441;-75
2023/02/14 10:24:45;;;;;;;25.30;22.87;;;10.80;97.60;;;;;;5105829;28;20442;-77
2023/02/14 10:27:26;;;;;;;25.70;23.40;;;11.10;97.40;;;;;;5105771;28;20765;-76
2023/02/14 10:29:53;;;;;;;26.77;24.40;;;11.20;96.30;;;;;;5105527;28;20492;-76
2023/02/14 10:32:24;;;;;;;25.73;23.30;;;11.30;96.60;;;;;;5105914;28;20458;-76
2023/02/14 10:34:56;;;;;;;24.63;22.50;;;11.30;96.00;;;;;;5105672;28;20445;-76
2023/02/14 10:37:38;;;;;;;24.63;22.17;;;11.30;95.60;;;;;;5105866;28;20453;-76
2023/02/14 10:40:38;;;;;;;26.10;23.37;;;11.30;95.60;;;;;;5106132;28;20438;-76
2023/02/14 10:43:17;;;;;;;24.90;22.60;;;11.50;95.30;;;;;;5105959;28;20789;-76
2023/02/14 10:45:50;;;;;;;29.30;22.80;;;11.60;94.90;;;;;;5105742;28;20550;-76
2023/02/14 10:48:28;;;;;;;24.43;22.10;;;11.30;95.30;;;;;;5105809;28;20446;-76
2023/02/14 10:51:03;;;;;;;24.53;22.30;;;11.30;95.70;;;;;;5105396;28;20489;-75
2023/02/14 10:53:38;;;;;;;24.40;22.20;;;11.80;95.10;;;;;;5105384;28;20445;-75
2023/02/14 10:56:07;;;;;;;24.73;22.63;;;11.60;94.90;;;;;;5105786;28;20468;-76
2023/02/14 10:58:39;;;;;;;24.77;22.30;;;11.50;95.20;;;;;;5105490;28;20446;-76
2023/02/14 11:01:09;;;;;;;25.63;23.13;;;11.80;94.50;;;;;;5105183;28;20462;-76
2023/02/14 11:03:39;;;;;;;25.50;23.20;;;11.80;94.80;;;;;;5105347;28;20525;-76
2023/02/14 11:06:06;;;;;;;27.30;24.97;;;12.50;93.70;;;;;;5105138;28;20812;-76
2023/02/14 11:08:34;;;;;;;24.23;21.90;;;13.00;92.30;;;;;;5104910;28;20516;-76
2023/02/14 11:11:07;;;;;;;26.40;24.20;;;13.00;91.90;;;;;;5102387;28;20495;-76
2023/02/14 11:13:37;;;;;;;26.73;24.43;;;13.40;91.40;;;;;;5091578;28;20448;-76
2023/02/14 11:16:07;;;;;;;26.30;24.20;;;13.70;90.90;;;;;;5091307;28;20455;-77
2023/02/14 11:18:36;;;;;;;24.63;22.43;;;13.80;90.60;;;;;;5091118;28;20495;-76
2023/02/14 11:21:06;;;;;;;24.90;22.40;;;13.50;90.50;;;;;;5091326;28;20501;-76
2023/02/14 11:23:34;;;;;;;25.23;23.20;;;13.90;90.10;;;;;;5091037;28;20818;-76
2023/02/14 11:26:03;;;;;;;26.03;23.73;;;14.20;90.10;;;;;;5090995;28;20479;-77
2023/02/14 11:28:30;;;;;;;24.07;22.17;;;14.90;87.50;;;;;;5090941;28;20453;-76
2023/02/14 11:30:58;;;;;;;25.23;23.00;;;15.30;84.60;;;;;;5090729;28;20508;-76
2023/02/14 11:33:34;;;;;;;26.00;24.00;;;15.70;83.30;;;;;;5090779;28;20580;-76
2023/02/14 11:36:03;;;;;;;25.47;23.30;;;15.40;81.70;;;;;;5090657;28;20791;-77
2023/02/14 11:38:33;;;;;;;22.73;20.97;;;15.30;82.60;;;;;;5090607;28;20450;-76
2023/02/14 11:41:00;;;;;;;24.80;22.60;;;15.10;82.90;;;;;;5090691;28;20459;-76
2023/02/14 11:43:32;;;;;;;27.50;24.70;;;15.40;81.80;;;;;;5090701;28;21033;-77
2023/02/14 11:46:14;;;;;;;25.17;23.10;;;15.50;81.80;;;;;;5090335;28;20454;-76
2023/02/14 11:48:55;;;;;;;27.27;24.80;;;15.60;81.60;;;;;;5090427;28;21240;-76
2023/02/14 11:51:28;;;;;;;27.07;24.57;;;15.60;80.70;;;;;;5090969;28;20487;-76
2023/02/14 11:53:59;;;;;;;25.30;23.03;;;15.80;81.70;;;;;;5091023;28;20458;-77
2023/02/14 11:56:45;;;;;;;26.77;24.37;;;17.60;76.70;;;;;;5090888;28;20670;-77
2023/02/14 11:59:21;;;;;;;25.17;23.17;;;18.50;71.30;;;;;;5090943;28;20454;-76
2023/02/14 12:01:49;;;;;;;27.07;25.07;;;19.10;69.50;;;;;;5090835;28;20446;-76
2023/02/14 12:04:22;;;;;;;26.03;24.30;;;20.30;67.30;;;;;;5090753;28;20447;-76
2023/02/14 12:06:49;;;;;;;27.70;25.70;;;21.40;62.50;;;;;;5090446;28;20471;-76
2023/02/14 12:09:26;;;;;;;27.77;25.50;;;21.90;59.80;;;;;;5090305;28;20493;-76
2023/02/14 12:11:57;;;;;;;28.50;26.13;;;23.10;57.10;;;;;;5089976;28;20585;-77
2023/02/14 12:14:27;;;;;;;28.97;26.60;;;24.50;54.50;;;;;;5090745;28;20461;-76
2023/02/14 12:17:02;;;;;;;28.20;26.40;;;24.60;51.30;;;;;;5091044;28;20871;-75
2023/02/14 12:19:38;;;;;;;28.17;26.17;;;24.90;50.70;;;;;;5090980;28;20874;-76
2023/02/14 12:22:06;;;;;;;26.83;24.67;;;25.10;50.10;;;;;;5091046;28;20489;-76
2023/02/14 12:24:37;;;;;;;26.53;24.67;;;26.00;49.30;;;;;;5090277;28;20486;-76
2023/02/14 12:27:17;;;;;;;26.87;24.97;;;26.90;46.90;;;;;;5091210;28;20473;-75
2023/02/14 12:29:49;;;;;;;27.57;25.27;;;25.20;46.40;;;;;;5090783;28;20455;-76
2023/02/14 12:32:22;;;;;;;26.90;25.00;;;24.50;48.10;;;;;;5091016;28;20447;-76
2023/02/14 12:34:50;;;;;;;27.17;25.37;;;24.60;48.60;;;;;;5091043;28;20458;-76
2023/02/14 12:37:24;;;;;;;26.57;24.47;;;24.70;47.60;;;;;;5090653;28;20448;-76
2023/02/14 12:40:06;;;;;;;27.03;25.10;;;24.40;48.70;;;;;;5091037;28;20451;-76
2023/02/14 12:42:46;;;;;;;25.93;24.03;;;24.00;47.70;;;;;;5090933;28;20443;-75
2023/02/14 12:45:20;;;;;;;27.13;25.10;;;24.10;48.50;;;;;;5090600;28;20813;-75
2023/02/14 12:47:58;;;;;;;26.70;24.80;;;23.80;48.30;;;;;;5090640;28;20965;-75
2023/02/14 12:50:33;;;;;;;26.97;25.07;;;23.70;48.20;;;;;;5090525;28;20454;-75
2023/02/14 12:53:34;;;;;;;28.60;26.20;;;23.60;48.20;;;;;;5090381;28;20446;-76
2023/02/14 12:56:11;;;;;;;27.33;25.23;;;23.40;49.60;;;;;;5090457;28;20534;-75
2023/02/14 12:58:49;;;;;;;26.87;24.77;;;22.90;49.30;;;;;;5090396;28;20442;-75
2023/02/14 13:01:35;;;;;;;29.23;27.03;;;22.00;50.20;;;;;;5090247;28;20482;-76
2023/02/14 13:04:38;;;;;;;28.53;26.43;;;21.60;51.60;;;;;;5090358;28;20999;-75
2023/02/14 13:07:12;;;;;;;29.30;26.90;;;21.90;51.80;;;;;;5090124;28;20493;-76
2023/02/14 13:09:49;;;;;;;28.47;26.40;;;21.70;51.50;;;;;;5090093;28;20499;-75
2023/02/14 13:12:28;;;;;;;27.37;25.27;;;21.50;51.20;;;;;;5089958;28;20919;-75
2023/02/14 13:15:06;;;;;;;26.93;24.80;;;21.30;52.60;;;;;;5090053;28;20473;-75
2023/02/14 13:17:40;;;;;;;27.90;25.40;;;21.40;52.10;;;;;;5090105;28;20945;-75
2023/02/14 13:20:26;;;;;;;26.97;24.77;;;21.70;51.70;;;;;;5089859;28;20552;-75
2023/02/14 13:22:55;;;;;;;26.60;24.50;;;21.10;52.10;;;;;;5089947;28;20482;-74
2023/02/14 13:25:30;;;;;;;27.20;25.00;;;20.10;53.20;;;;;;5090105;28;20454;-75
2023/02/14 13:27:58;;;;;;;26.40;24.17;;;19.60;54.80;;;;;;5089600;28;20616;-75
2023/02/14 13:30:30;;;;;;;26.80;24.70;;;19.40;55.50;;;;;;5089765;28;20455;-75
2023/02/14 13:33:00;;;;;;;27.67;25.20;;;18.30;56.20;;;;;;5089706;28;20468;-73
2023/02/14 13:35:29;;;;;;;25.87;23.77;;;17.20;58.00;;;;;;5089540;28;20492;-74
2023/02/14 13:38:01;;;;;;;25.47;23.23;;;16.00;60.60;;;;;;5089505;28;20470;-74
2023/02/14 13:40:29;;;;;;;26.40;24.20;;;14.80;65.70;;;;;;5089608;28;20458;-75
2023/02/14 13:42:58;;;;;;;27.50;24.70;;;14.20;69.80;;;;;;5089615;28;20982;-75
2023/02/14 13:45:58;;;;;;;29.57;26.20;;;13.60;75.40;;;;;;5089452;28;20446;-74
2023/02/14 13:48:27;;;;;;;30.00;27.30;;;13.10;82.90;;;;;;5087205;28;20639;-74
2023/02/14 13:50:57;;;;;;;29.27;26.17;;;12.60;89.80;;;;;;5089281;28;20446;-74
2023/02/14 13:53:36;;;;;;;28.70;25.90;;;12.30;92.80;;;;;;5089576;28;20454;-74
2023/02/14 13:56:05;;;;;;;26.60;23.97;;;12.20;93.70;;;;;;5089712;28;20447;-74
2023/02/14 13:58:33;;;;;;;27.70;25.10;;;12.10;94.40;;;;;;5089550;28;20469;-74
2023/02/14 14:01:31;;;;;;;26.93;24.07;;;12.00;94.70;;;;;;5089252;28;20521;-74
2023/02/14 14:03:59;;;;;;;28.57;25.77;;;11.90;95.50;;;;;;5089483;28;20450;-74
2023/02/14 14:06:27;;;;;;;28.13;25.43;;;11.70;96.60;;;;;;5089209;28;20659;-74
2023/02/14 14:08:55;;;;;;;27.53;24.87;;;11.70;97.10;;;;;;5089211;28;20450;-74
2023/02/14 14:11:50;;;;;;;29.67;26.83;;;11.70;97.40;;;;;;5089274;28;20477;-74
2023/02/14 14:14:35;;;;;;;29.50;26.53;;;11.70;97.60;;;;;;5089371;28;20451;-74
2023/02/14 14:17:04;;;;;;;29.07;26.17;;;11.60;98.00;;;;;;5089572;28;20471;-74
2023/02/14 14:19:40;;;;;;;29.30;26.20;;;11.50;98.30;;;;;;5089332;28;20447;-74
2023/02/14 14:22:10;;;;;;;28.73;25.60;;;11.50;98.90;;;;;;5089267;28;20481;-74
2023/02/14 14:24:38;;;;;;;28.17;25.67;;;11.50;99.20;;;;;;5089294;28;20447;-74
2023/02/14 14:27:12;;;;;;;27.90;25.20;;;11.60;99.10;;;;;;5089469;28;21019;-74
2023/02/14 14:29:45;;;;;;;28.10;25.30;;;11.50;99.40;;;;;;5089175;28;20949;-74
2023/02/14 14:32:18;;;;;;;28.33;25.43;;;11.50;99.30;;;;;;5088979;28;20446;-74
2023/02/14 14:34:49;;;;;;;27.83;25.27;;;11.50;99.70;;;;;;5089125;28;20558;-74
2023/02/14 14:37:20;;;;;;;28.80;26.00;;;11.40;99.80;;;;;;5089207;28;20470;-73
2023/02/14 14:39:51;;;;;;;28.53;25.73;;;11.40;99.90;;;;;;5089205;28;20454;-74
2023/02/14 14:42:19;;;;;;;26.97;24.20;;;11.40;99.90;;;;;;5089207;28;20490;-74
2023/02/14 14:44:49;;;;;;;27.40;24.80;;;11.30;99.90;;;;;;5089007;28;20839;-73
2023/02/14 14:47:19;;;;;;;26.13;23.63;;;11.40;99.90;;;;;;5090880;28;20449;-73
2023/02/14 14:49:46;;;;;;;28.13;25.60;;;11.30;99.90;;;;;;5092847;28;20533;-74
2023/02/14 14:52:32;;;;;;;28.50;25.80;;;11.20;99.90;;;;;;5092755;28;20478;-74
2023/02/14 14:55:00;;;;;;;27.47;25.00;;;11.20;99.90;;;;;;5092700;28;20446;-73
2023/02/14 14:57:27;;;;;;;27.83;25.03;;;11.10;99.90;;;;;;5092644;28;20531;-74
2023/02/14 15:00:08;;;;;;;26.43;23.73;;;11.10;99.90;;;;;;5092598;28;20819;-74
2023/02/14 15:02:35;;;;;;;27.93;25.13;;;11.10;99.90;;;;;;5092809;28;20516;-74
2023/02/14 15:05:14;;;;;;;26.77;24.27;;;11.10;99.90;;;;;;5092488;28;20496;-74
2023/02/14 15:07:44;;;;;;;29.20;26.43;;;11.10;99.90;;;;;;5092142;28;20473;-74
2023/02/14 15:10:27;;;;;;;26.40;23.97;;;11.10;99.90;;;;;;5092071;28;21021;-73
2023/02/14 15:15:47;;;;;;;29.97;27.00;;;10.90;99.90;;;;;;5092410;28;20795;-73
2023/02/14 15:18:14;;;;;;;32.23;26.17;;;10.90;99.90;;;;;;5092256;28;20438;-73
2023/02/14 15:20:41;;;;;;;27.37;24.57;;;10.80;99.90;;;;;;5092076;28;20469;-73
2023/02/14 15:23:17;;;;;;;29.90;26.87;;;10.80;99.90;;;;;;5092033;28;21004;-74
2023/02/14 15:25:46;;;;;;;29.00;26.27;;;10.70;99.90;;;;;;5092069;28;20450;-73
2023/02/14 15:28:16;;;;;;;28.27;25.43;;;10.70;99.90;;;;;;5092129;28;20455;-73
2023/02/14 15:30:43;;;;;;;27.70;24.93;;;10.70;99.90;;;;;;5091774;28;20500;-73
2023/02/14 15:33:11;;;;;;;27.90;25.17;;;10.60;99.90;;;;;;5091994;28;20454;-74
2023/02/14 15:35:41;;;;;;;27.47;24.83;;;10.60;99.90;;;;;;5091839;28;20454;-73
2023/02/14 15:38:11;;;;;;;30.10;27.33;;;10.60;99.90;;;;;;5091816;28;20821;-74
2023/02/14 15:40:39;;;;;;;30.10;27.13;;;10.50;99.90;;;;;;5091810;28;20450;-74
2023/02/14 15:43:20;;;;;;;28.87;26.27;;;10.50;99.90;;;;;;5092117;28;20921;-74
2023/02/14 15:45:50;;;;;;;29.57;26.40;;;10.30;99.90;;;;;;5091823;28;20955;-74
2023/02/14 15:48:28;;;;;;;29.03;26.23;;;10.30;99.90;;;;;;5091922;28;20450;-74
2023/02/14 15:50:57;;;;;;;30.33;27.47;;;10.30;99.90;;;;;;5091714;28;20446;-75
2023/02/14 15:53:35;;;;;;;31.27;28.27;;;10.20;99.90;;;;;;5091690;28;20447;-73
2023/02/14 15:56:05;;;;;;;30.17;27.33;;;10.10;99.90;;;;;;5091663;28;20493;-73
2023/02/14 15:58:34;;;;;;;29.77;26.77;;;10.00;99.90;;;;;;5091659;28;20447;-74
2023/02/14 16:01:01;;;;;;;28.30;25.77;;;9.90;99.90;;;;;;5091370;28;20453;-75
2023/02/14 16:03:32;;;;;;;29.90;27.10;;;9.80;99.90;;;;;;5091395;28;20454;-74
2023/02/14 16:05:59;;;;;;;31.07;27.63;;;9.70;99.90;;;;;;5091515;28;20950;-74
2023/02/14 16:08:31;;;;;;;30.67;27.03;;;9.60;99.90;;;;;;5091337;28;21033;-72
2023/02/14 16:11:00;;;;;;;31.00;27.77;;;9.60;99.90;;;;;;5090911;28;20486;-73
2023/02/14 16:13:32;;;;;;;35.27;31.70;;;9.50;99.90;;;;;;5091106;28;20874;-72
2023/02/14 16:16:00;;;;;;;33.37;30.20;;;9.40;99.90;;;;;;5091219;28;20669;-73
2023/02/14 16:18:37;;;;;;;30.73;27.53;;;9.30;99.90;;;;;;5091065;28;20500;-72
2023/02/14 16:21:12;;;;;;;30.40;27.57;;;9.10;99.90;;;;;;5090908;28;20481;-74
2023/02/14 16:23:40;;;;;;;33.47;30.33;;;8.90;99.90;;;;;;5091334;28;20442;-72
2023/02/14 16:26:08;;;;;;;30.70;27.87;;;8.80;99.90;;;;;;5091432;28;20446;-73
2023/02/14 16:28:36;;;;;;;30.13;27.33;;;8.80;99.90;;;;;;5091217;28;20447;-73
2023/02/14 16:31:08;;;;;;;29.73;26.97;;;8.70;99.90;;;;;;5090962;28;20469;-73
2023/02/14 16:33:37;;;;;;;31.33;28.27;;;8.60;99.90;;;;;;5091027;28;21005;-73
2023/02/14 16:36:08;;;;;;;34.60;31.23;;;8.50;99.90;;;;;;5090965;28;20462;-72
2023/02/14 16:38:42;;;;;;;31.20;28.00;;;8.40;99.90;;;;;;5090881;28;21052;-74
2023/02/14 16:41:17;;;;;;;33.40;29.80;;;8.30;99.90;;;;;;5090679;28;20504;-74
2023/02/14 16:43:44;;;;;;;30.37;27.43;;;8.20;99.90;;;;;;5090712;28;20499;-75
2023/02/14 16:46:13;;;;;;;31.10;27.77;;;8.10;99.90;;;;;;5090412;28;20570;-74
2023/02/14 16:48:39;;;;;;;32.50;29.37;;;8.00;99.90;;;;;;5090469;28;20478;-73
2023/02/14 16:51:06;;;;;;;33.30;30.10;;;7.90;99.90;;;;;;5090519;28;20470;-75
2023/02/14 16:53:33;;;;;;;30.87;27.90;;;7.70;99.90;;;;;;5090475;28;20462;-73
2023/02/14 16:56:00;;;;;;;33.60;30.40;;;7.70;99.90;;;;;;5090428;28;20450;-73
2023/02/14 16:58:34;;;;;;;33.47;30.47;;;7.60;99.90;;;;;;5090134;28;20658;-73
2023/02/14 17:01:01;;;;;;;32.97;28.97;;;7.50;99.90;;;;;;5090444;28;20458;-73
2023/02/14 17:03:28;;;;;;;31.47;28.33;;;7.40;99.90;;;;;;5090099;28;20874;-73
2023/02/14 17:05:56;;;;;;;32.67;29.30;;;7.30;99.90;;;;;;5090067;28;20454;-74
2023/02/14 17:08:24;;;;;;;32.90;29.83;;;7.20;99.90;;;;;;5090072;28;20462;-73
2023/02/14 17:10:51;;;;;;;33.37;30.20;;;7.10;99.90;;;;;;5089666;28;20485;-74
2023/02/14 17:13:20;;;;;;;36.97;32.20;;;7.00;99.90;;;;;;5090306;28;20449;-73
2023/02/14 17:15:49;;;;;;;35.70;31.70;;;6.90;99.90;;;;;;5090134;28;20451;-73
2023/02/14 17:18:19;;;;;;;35.67;31.07;;;6.80;99.90;;;;;;5090111;28;20453;-74
2023/02/14 17:20:46;;;;;;;34.87;31.50;;;6.70;99.90;;;;;;5089892;28;20454;-73
2023/02/14 17:23:14;;;;;;;33.57;30.37;;;6.60;99.90;;;;;;5089754;28;20568;-74
2023/02/14 17:25:40;;;;;;;36.70;33.20;;;6.50;99.90;;;;;;5089839;28;20868;-74
2023/02/14 17:28:07;;;;;;;36.70;32.97;;;6.40;99.90;;;;;;5089875;28;20454;-74
2023/02/14 17:30:34;;;;;;;35.60;31.80;;;6.30;99.90;;;;;;5089948;28;20446;-74
2023/02/14 17:33:02;;;;;;;39.50;35.40;;;6.20;99.90;;;;;;5089700;28;20454;-73
2023/02/14 17:35:29;;;;;;;41.30;33.97;;;6.10;99.90;;;;;;5089565;28;20462;-73
2023/02/14 17:37:56;;;;;;;36.27;32.60;;;5.90;99.90;;;;;;5089730;28;20471;-74
2023/02/14 17:40:23;;;;;;;38.10;34.20;;;5.90;99.90;;;;;;5089858;28;20447;-74
2023/02/14 17:42:49;;;;;;;38.10;34.20;;;5.90;99.90;;;;;;5089883;28;20487;-74
2023/02/14 17:45:16;;;;;;;37.13;33.33;;;5.90;99.90;;;;;;5089841;28;20446;-74
2023/02/14 17:47:44;;;;;;;38.43;34.37;;;5.80;99.90;;;;;;5089447;28;20439;-71
2023/02/14 17:50:13;;;;;;;38.10;34.10;;;5.70;99.90;;;;;;5089448;28;21235;-73
2023/02/14 17:52:40;;;;;;;38.80;34.53;;;5.60;99.90;;;;;;5089500;28;20457;-73
2023/02/14 17:55:08;;;;;;;41.03;36.90;;;5.60;99.90;;;;;;5089616;28;20455;-73
2023/02/14 17:57:35;;;;;;;36.07;32.23;;;5.50;99.90;;;;;;5089733;28;20484;-73
